• Join FlightAware (Why Join?)
  • Login
  • US Flag 
04:21PM EDT


 

Airport Tracker/Info


-or-


 

Live Flight TrackerFlight Track Log ✈ N674DJ ✈ 01-Jul-2013 ✈ KBED - KRDG

Flight Track Log - Related Links

Times and Time Zones

All times are in EDT time to prevent confusion due to time zone crossing. See the N674DJ flight status page for this flight to view local times or setup timezone preferences in your user account.

Time Position Orientation Groundspeed Altitude Reporting Facility
EDT Latitude Longitude Course Direction KTS MPH feet Rate Location/Type
12:38PM 41.9272 -72.4958 266° West 359 413 23,300  Level Boston Center
12:39PM 41.9439 -72.6411 279° West 356 410 25,400 1,320 Climbing Boston Center
12:40PM 41.9603 -72.7778 279° West 356 410 26,000 300 Climbing Boston Center
12:41PM 41.9742 -72.9175 278° West 373 429 26,000  Level Boston Center
12:42PM 41.9861 -73.0572 277° West 406 467 26,000  Level Boston Center
12:43PM 42.0039 -73.2111 279° West 420 483 26,000  Level Boston Center
12:44PM 42.2788 -73.0176 266° West  Level FlightAware Approximate
12:44PM 42.0194 -73.3622 278° West 420 483 26,000  Level Boston Center
12:45PM 42.0369 -73.5106 279° West 415 478 26,000  Level Boston Center
12:46PM 42.0519 -73.6647 278° West 415 478 26,000  Level Boston Center
12:47PM 42.0689 -73.8161 279° West 415 478 26,000  Level Boston Center
12:48PM 42.0836 -73.9703 277° West 415 478 26,000  Level Boston Center
12:49PM 42.0981 -74.1244 277° West 415 478 26,000  Level Boston Center
12:50PM 42.1144 -74.2817 278° West 420 483 26,000  Level Boston Center
12:51PM 42.1286 -74.4389 277° West 425 489 26,000 -660 Level Boston Center
12:52PM 42.1464 -74.5936 279° West 425 489 24,700 -1,680 Descending Boston Center
12:53PM 42.1625 -74.7369 279° West 414 476 22,700 -1,860 Descending Boston Center
12:56PM 42.1267 -75.0100 260° West 363 418 19,000 -1,200 Descending New York Center
12:57PM 42.0283 -75.0817 208° Southwest 337 388 19,000  Level New York Center
12:58PM 41.9450 -75.1433 209° Southwest 351 404 19,000  Level New York Center
12:59PM 41.8614 -75.2017 207° Southwest 351 404 19,000 -600 Level New York Center
01:00PM 41.7844 -75.2606 210° Southwest 351 404 17,900 -1,440 Descending New York Center
01:02PM 41.6000 -75.3953 209° Southwest 363 418 14,800 -1,620 Descending New York Center
01:03PM 41.5164 -75.4558 208° Southwest 358 412 13,200 -1,440 Descending New York Center
01:04PM 41.4389 -75.5225 213° Southwest 353 406 12,000 -600 Descending New York Center
01:05PM 41.3736 -75.5897 218° Southwest 340 391 12,000  Level New York Center
01:06PM 41.2956 -75.6642 216° Southwest 340 391 12,000  Level New York Center
01:07PM 41.2142 -75.7217 208° Southwest 345 397 12,000  Level New York Center
01:08PM 41.1161 -75.7725 201° Southwest 338 389 12,000  Level New York Center
01:09PM 41.0308 -75.8183 202° Southwest 344 396 12,000 -660 Level New York Center
01:10PM 40.9519 -75.8592 201° Southwest 337 388 10,700 -1,080 Descending New York Center
01:12PM 40.8156 -75.9314 202° Southwest 273 314 8,900 -1,140 Descending New York Center
01:13PM 40.7494 -75.9675 202° Southwest 268 308 7,300 -1,500 Descending New York Center
01:14PM 40.6789 -76.0031 201° Southwest 258 297 5,900 -1,500 Descending New York Center
01:16PM 40.5664 -76.0983 213° Southwest 247 284 3,000 -1,020 Descending New York Center
01:17PM 40.5086 -76.1322 204° Southwest 235 270 3,000  Level New York Center
01:18PM 40.4583 -76.1392 186° South 206 237 3,000 -360 Level New York Center
01:19PM 40.4375 -76.0939 121° Southeast 143 165 2,300 -720 Descending New York Center
01:21PM 40.4033 -76.0150 120° Southeast 126 145 900 -540 Descending New York Center
01:22PM 40.3864 -75.9783 121° Southeast 121 139 700 3,000 Descending New York Center
01:23PM 40.3711 -75.9444 121° Southeast 121 139 7,000 3,120 Climbing New York Center
01:24PM 40.3581 -75.9081 115° Southeast 121 139 7,000  Level New York Center